sensor_id;sensor_type;location;lat;lon;timestamp;pressure;altitude;pressure_sealevel;temperature;humidity
18858;BME280;9558;50.178;8.370;2023-03-04T00:01:44;98904.91;;;-0.25;100.00
18858;BME280;9558;50.178;8.370;2023-03-04T00:04:10;98902.44;;;-0.27;100.00
18858;BME280;9558;50.178;8.370;2023-03-04T00:06:38;98910.97;;;-0.28;100.00
18858;BME280;9558;50.178;8.370;2023-03-04T00:09:04;98914.41;;;-0.29;100.00
18858;BME280;9558;50.178;8.370;2023-03-04T00:11:31;98914.41;;;-0.29;100.00
18858;BME280;9558;50.178;8.370;2023-03-04T00:13:58;98918.78;;;-0.31;100.00
18858;BME280;9558;50.178;8.370;2023-03-04T00:16:25;98908.88;;;-0.36;100.00
18858;BME280;9558;50.178;8.370;2023-03-04T00:18:51;98916.59;;;-0.37;100.00
18858;BME280;9558;50.178;8.370;2023-03-04T00:21:18;98913.31;;;-0.39;100.00
18858;BME280;9558;50.178;8.370;2023-03-04T00:23:46;98921.03;;;-0.41;100.00
18858;BME280;9558;50.178;8.370;2023-03-04T00:26:13;98920.22;;;-0.41;100.00
18858;BME280;9558;50.178;8.370;2023-03-04T00:28:40;98918.75;;;-0.45;100.00
18858;BME280;9558;50.178;8.370;2023-03-04T00:31:06;98912.03;;;-0.46;100.00
18858;BME280;9558;50.178;8.370;2023-03-04T00:33:33;98915.47;;;-0.47;100.00
18858;BME280;9558;50.178;8.370;2023-03-04T00:36:00;98918.75;;;-0.45;100.00
18858;BME280;9558;50.178;8.370;2023-03-04T00:38:27;98913.66;;;-0.45;100.00
18858;BME280;9558;50.178;8.370;2023-03-04T00:40:55;98913.75;;;-0.47;100.00
18858;BME280;9558;50.178;8.370;2023-03-04T00:43:21;98909.31;;;-0.43;100.00
18858;BME280;9558;50.178;8.370;2023-03-04T00:45:48;98907.69;;;-0.44;100.00
18858;BME280;9558;50.178;8.370;2023-03-04T00:48:14;98905.16;;;-0.44;100.00
18858;BME280;9558;50.178;8.370;2023-03-04T00:50:41;98910.06;;;-0.41;100.00
18858;BME280;9558;50.178;8.370;2023-03-04T00:53:08;98916.75;;;-0.40;100.00
18858;BME280;9558;50.178;8.370;2023-03-04T00:55:35;98909.22;;;-0.42;100.00
18858;BME280;9558;50.178;8.370;2023-03-04T00:58:03;98908.22;;;-0.39;100.00
18858;BME280;9558;50.178;8.370;2023-03-04T01:00:29;98908.06;;;-0.36;100.00
18858;BME280;9558;50.178;8.370;2023-03-04T01:02:56;98902.78;;;-0.33;100.00
18858;BME280;9558;50.178;8.370;2023-03-04T01:05:22;98905.25;;;-0.31;100.00
18858;BME280;9558;50.178;8.370;2023-03-04T01:07:49;98898.25;;;-0.28;100.00
18858;BME280;9558;50.178;8.370;2023-03-04T01:10:16;98903.91;;;-0.23;100.00
18858;BME280;9558;50.178;8.370;2023-03-04T01:12:43;98895.25;;;-0.20;100.00
18858;BME280;9558;50.178;8.370;2023-03-04T01:15:12;98897.66;;;-0.17;100.00
18858;BME280;9558;50.178;8.370;2023-03-04T01:17:39;98894.84;;;-0.12;100.00
18858;BME280;9558;50.178;8.370;2023-03-04T01:20:08;98891.22;;;-0.08;100.00
18858;BME280;9558;50.178;8.370;2023-03-04T01:22:35;98889.38;;;-0.06;100.00
18858;BME280;9558;50.178;8.370;2023-03-04T01:25:02;98884.09;;;-0.03;100.00
18858;BME280;9558;50.178;8.370;2023-03-04T01:27:28;98878.69;;;0.03;100.00
18858;BME280;9558;50.178;8.370;2023-03-04T01:29:55;98875.94;;;0.06;100.00
18858;BME280;9558;50.178;8.370;2023-03-04T01:32:23;98879.75;;;0.13;100.00
18858;BME280;9558;50.178;8.370;2023-03-04T01:34:49;98874.78;;;0.12;100.00
18858;BME280;9558;50.178;8.370;2023-03-04T01:37:16;98870.22;;;0.17;100.00
18858;BME280;9558;50.178;8.370;2023-03-04T01:39:42;98864.13;;;0.20;100.00
18858;BME280;9558;50.178;8.370;2023-03-04T01:42:16;98860.66;;;0.21;100.00
18858;BME280;9558;50.178;8.370;2023-03-04T01:44:43;98852.66;;;0.27;100.00
18858;BME280;9558;50.178;8.370;2023-03-04T01:47:10;98852.38;;;0.31;100.00
18858;BME280;9558;50.178;8.370;2023-03-04T01:49:39;98851.19;;;0.37;100.00
18858;BME280;9558;50.178;8.370;2023-03-04T01:52:09;98839.91;;;0.41;100.00
18858;BME280;9558;50.178;8.370;2023-03-04T01:54:37;98837.00;;;0.47;100.00
18858;BME280;9558;50.178;8.370;2023-03-04T01:57:08;98838.00;;;0.45;100.00
18858;BME280;9558;50.178;8.370;2023-03-04T01:59:40;98831.91;;;0.47;100.00
18858;BME280;9558;50.178;8.370;2023-03-04T02:02:07;98835.25;;;0.48;100.00
18858;BME280;9558;50.178;8.370;2023-03-04T02:04:33;98833.34;;;0.51;100.00
18858;BME280;9558;50.178;8.370;2023-03-04T02:07:03;98830.72;;;0.53;100.00
18858;BME280;9558;50.178;8.370;2023-03-04T02:09:31;98829.88;;;0.52;100.00
18858;BME280;9558;50.178;8.370;2023-03-04T02:11:59;98822.22;;;0.52;100.00
18858;BME280;9558;50.178;8.370;2023-03-04T02:14:26;98820.22;;;0.58;100.00
18858;BME280;9558;50.178;8.370;2023-03-04T02:16:53;98814.41;;;0.56;100.00
18858;BME280;9558;50.178;8.370;2023-03-04T02:19:30;98809.13;;;0.59;100.00
18858;BME280;9558;50.178;8.370;2023-03-04T02:22:02;98811.59;;;0.60;100.00
18858;BME280;9558;50.178;8.370;2023-03-04T02:24:33;98808.94;;;0.62;99.95
18858;BME280;9558;50.178;8.370;2023-03-04T02:27:02;98801.19;;;0.63;100.00
18858;BME280;9558;50.178;8.370;2023-03-04T02:29:29;98800.91;;;0.68;99.73
18858;BME280;9558;50.178;8.370;2023-03-04T02:31:56;98805.91;;;0.69;99.72
18858;BME280;9558;50.178;8.370;2023-03-04T02:34:24;98802.97;;;0.76;99.75
18858;BME280;9558;50.178;8.370;2023-03-04T02:36:54;98812.25;;;0.77;99.51
18858;BME280;9558;50.178;8.370;2023-03-04T02:39:24;98805.34;;;0.79;99.87
18858;BME280;9558;50.178;8.370;2023-03-04T02:41:54;98799.41;;;0.78;99.07
18858;BME280;9558;50.178;8.370;2023-03-04T02:44:24;98802.69;;;0.80;98.98
18858;BME280;9558;50.178;8.370;2023-03-04T02:46:52;98807.59;;;0.83;98.57
18858;BME280;9558;50.178;8.370;2023-03-04T02:49:19;98810.34;;;0.80;98.48
18858;BME280;9558;50.178;8.370;2023-03-04T02:51:49;98805.25;;;0.80;98.32
18858;BME280;9558;50.178;8.370;2023-03-04T02:54:17;98804.50;;;0.78;98.86
18858;BME280;9558;50.178;8.370;2023-03-04T02:56:44;98808.69;;;0.79;98.57
18858;BME280;9558;50.178;8.370;2023-03-04T02:59:11;98805.25;;;0.80;98.59
18858;BME280;9558;50.178;8.370;2023-03-04T03:01:39;98804.31;;;0.81;98.34
18858;BME280;9558;50.178;8.370;2023-03-04T03:04:05;98801.59;;;0.84;98.34
18858;BME280;9558;50.178;8.370;2023-03-04T03:06:32;98801.47;;;0.86;99.20
18858;BME280;9558;50.178;8.370;2023-03-04T03:08:59;98795.34;;;0.89;98.45
18858;BME280;9558;50.178;8.370;2023-03-04T03:11:25;98796.91;;;0.91;98.41
18858;BME280;9558;50.178;8.370;2023-03-04T03:13:52;98793.34;;;0.94;98.14
18858;BME280;9558;50.178;8.370;2023-03-04T03:16:18;98795.69;;;0.97;98.30
18858;BME280;9558;50.178;8.370;2023-03-04T03:18:46;98797.03;;;1.02;98.36
18858;BME280;9558;50.178;8.370;2023-03-04T03:21:13;98803.66;;;1.05;98.27
18858;BME280;9558;50.178;8.370;2023-03-04T03:23:39;98798.47;;;1.07;98.25
18858;BME280;9558;50.178;8.370;2023-03-04T03:26:06;98794.00;;;1.10;98.01
18858;BME280;9558;50.178;8.370;2023-03-04T03:28:33;98794.69;;;1.12;97.92
18858;BME280;9558;50.178;8.370;2023-03-04T03:30:59;98786.84;;;1.15;97.54
18858;BME280;9558;50.178;8.370;2023-03-04T03:33:26;98792.06;;;1.14;97.83
18858;BME280;9558;50.178;8.370;2023-03-04T03:35:54;98788.69;;;1.13;98.23
18858;BME280;9558;50.178;8.370;2023-03-04T03:38:20;98787.69;;;1.16;98.40
18858;BME280;9558;50.178;8.370;2023-03-04T03:40:47;98791.03;;;1.16;97.98
18858;BME280;9558;50.178;8.370;2023-03-04T03:43:13;98785.03;;;1.17;97.61
18858;BME280;9558;50.178;8.370;2023-03-04T03:45:40;98778.09;;;1.19;97.71
18858;BME280;9558;50.178;8.370;2023-03-04T03:48:06;98783.19;;;1.19;97.45
18858;BME280;9558;50.178;8.370;2023-03-04T03:50:33;98784.84;;;1.20;97.85
18858;BME280;9558;50.178;8.370;2023-03-04T03:53:01;98784.84;;;1.20;98.09
18858;BME280;9558;50.178;8.370;2023-03-04T03:55:28;98777.69;;;1.26;97.22
18858;BME280;9558;50.178;8.370;2023-03-04T03:57:54;98777.88;;;1.23;97.43
18858;BME280;9558;50.178;8.370;2023-03-04T04:00:21;98771.78;;;1.25;97.52
18858;BME280;9558;50.178;8.370;2023-03-04T04:02:48;98776.78;;;1.27;97.36
18858;BME280;9558;50.178;8.370;2023-03-04T04:05:14;98788.50;;;1.29;97.29
18858;BME280;9558;50.178;8.370;2023-03-04T04:07:41;98780.16;;;1.27;98.65
18858;BME280;9558;50.178;8.370;2023-03-04T04:10:10;98778.00;;;1.34;97.38
18858;BME280;9558;50.178;8.370;2023-03-04T04:12:36;98778.09;;;1.32;97.50
18858;BME280;9558;50.178;8.370;2023-03-04T04:15:03;98777.78;;;1.37;97.21
18858;BME280;9558;50.178;8.370;2023-03-04T04:17:30;98767.47;;;1.38;96.92
18858;BME280;9558;50.178;8.370;2023-03-04T04:19:57;98774.97;;;1.42;96.99
18858;BME280;9558;50.178;8.370;2023-03-04T04:22:23;98779.13;;;1.43;96.93
18858;BME280;9558;50.178;8.370;2023-03-04T04:24:50;98781.38;;;1.47;96.79
18858;BME280;9558;50.178;8.370;2023-03-04T04:27:17;98777.19;;;1.46;96.84
18858;BME280;9558;50.178;8.370;2023-03-04T04:29:45;98777.69;;;1.51;96.59
18858;BME280;9558;50.178;8.370;2023-03-04T04:32:12;98776.78;;;1.52;96.70
18858;BME280;9558;50.178;8.370;2023-03-04T04:34:38;98774.44;;;1.49;96.49
18858;BME280;9558;50.178;8.370;2023-03-04T04:37:05;98771.88;;;1.49;96.06
18858;BME280;9558;50.178;8.370;2023-03-04T04:39:31;98770.97;;;1.50;96.05
18858;BME280;9558;50.178;8.370;2023-03-04T04:41:58;98770.03;;;1.51;96.51
18858;BME280;9558;50.178;8.370;2023-03-04T04:44:26;98770.03;;;1.51;96.29
18858;BME280;9558;50.178;8.370;2023-03-04T04:46:52;98769.97;;;1.53;96.36
18858;BME280;9558;50.178;8.370;2023-03-04T04:49:19;98776.66;;;1.54;96.13
18858;BME280;9558;50.178;8.370;2023-03-04T04:51:45;98768.09;;;1.55;95.98
18858;BME280;9558;50.178;8.370;2023-03-04T04:54:13;98764.03;;;1.52;96.06
18858;BME280;9558;50.178;8.370;2023-03-04T04:56:40;98772.59;;;1.51;96.39
18858;BME280;9558;50.178;8.370;2023-03-04T04:59:06;98768.91;;;1.55;95.86
18858;BME280;9558;50.178;8.370;2023-03-04T05:01:34;98767.09;;;1.58;95.62
18858;BME280;9558;50.178;8.370;2023-03-04T05:04:01;98760.13;;;1.60;95.86
18858;BME280;9558;50.178;8.370;2023-03-04T05:06:28;98756.88;;;1.58;96.29
18858;BME280;9558;50.178;8.370;2023-03-04T05:08:54;98754.22;;;1.59;96.11
18858;BME280;9558;50.178;8.370;2023-03-04T05:11:21;98762.38;;;1.64;95.48
18858;BME280;9558;50.178;8.370;2023-03-04T05:13:48;98775.22;;;1.63;95.47
18858;BME280;9558;50.178;8.370;2023-03-04T05:16:15;98771.97;;;1.61;96.43
18858;BME280;9558;50.178;8.370;2023-03-04T05:18:43;98769.22;;;1.64;95.73
18858;BME280;9558;50.178;8.370;2023-03-04T05:21:10;98762.47;;;1.63;96.04
18858;BME280;9558;50.178;8.370;2023-03-04T05:23:39;98773.41;;;1.65;95.59
18858;BME280;9558;50.178;8.370;2023-03-04T05:26:07;98764.84;;;1.66;95.18
18858;BME280;9558;50.178;8.370;2023-03-04T05:28:34;98764.00;;;1.65;95.12
18858;BME280;9558;50.178;8.370;2023-03-04T05:31:01;98766.56;;;1.65;94.98
18858;BME280;9558;50.178;8.370;2023-03-04T05:33:28;98761.56;;;1.64;95.18
18858;BME280;9558;50.178;8.370;2023-03-04T05:35:56;98759.75;;;1.66;95.09
18858;BME280;9558;50.178;8.370;2023-03-04T05:38:23;98764.84;;;1.66;95.51
18858;BME280;9558;50.178;8.370;2023-03-04T05:40:55;98771.44;;;1.68;95.34
18858;BME280;9558;50.178;8.370;2023-03-04T05:43:21;98767.66;;;1.74;94.95
18858;BME280;9558;50.178;8.370;2023-03-04T05:45:48;98762.78;;;1.71;95.40
18858;BME280;9558;50.178;8.370;2023-03-04T05:48:15;98766.06;;;1.73;95.15
18858;BME280;9558;50.178;8.370;2023-03-04T05:50:41;98771.34;;;1.70;95.10
18858;BME280;9558;50.178;8.370;2023-03-04T05:53:09;98769.41;;;1.73;94.90
18858;BME280;9558;50.178;8.370;2023-03-04T05:55:36;98764.41;;;1.72;94.88
18858;BME280;9558;50.178;8.370;2023-03-04T05:58:02;98766.97;;;1.72;94.87
18858;BME280;9558;50.178;8.370;2023-03-04T06:00:29;98776.28;;;1.73;95.20
18858;BME280;9558;50.178;8.370;2023-03-04T06:02:56;98776.28;;;1.73;95.96
18858;BME280;9558;50.178;8.370;2023-03-04T06:05:22;98771.16;;;1.73;95.42
18858;BME280;9558;50.178;8.370;2023-03-04T06:07:49;98776.16;;;1.75;96.09
18858;BME280;9558;50.178;8.370;2023-03-04T06:10:18;98771.88;;;1.75;95.14
18858;BME280;9558;50.178;8.370;2023-03-04T06:12:45;98776.06;;;1.76;94.85
18858;BME280;9558;50.178;8.370;2023-03-04T06:15:12;98777.47;;;1.80;95.02
18858;BME280;9558;50.178;8.370;2023-03-04T06:17:40;98786.75;;;1.81;94.95
18858;BME280;9558;50.178;8.370;2023-03-04T06:20:08;98784.19;;;1.81;94.78
18858;BME280;9558;50.178;8.370;2023-03-04T06:22:35;98786.66;;;1.83;94.82
18858;BME280;9558;50.178;8.370;2023-03-04T06:25:02;98794.22;;;1.84;94.73
18858;BME280;9558;50.178;8.370;2023-03-04T06:27:30;98798.59;;;1.82;94.68
18858;BME280;9558;50.178;8.370;2023-03-04T06:29:56;98804.31;;;1.86;94.92
18858;BME280;9558;50.178;8.370;2023-03-04T06:32:23;98800.84;;;1.87;94.86
18858;BME280;9558;50.178;8.370;2023-03-04T06:34:49;98796.47;;;1.89;94.64
18858;BME280;9558;50.178;8.370;2023-03-04T06:37:16;98802.38;;;1.89;94.43
18858;BME280;9558;50.178;8.370;2023-03-04T06:39:43;98804.00;;;1.90;93.53
18858;BME280;9558;50.178;8.370;2023-03-04T06:42:09;98802.88;;;1.95;94.27
18858;BME280;9558;50.178;8.370;2023-03-04T06:44:37;98804.50;;;1.96;94.06
18858;BME280;9558;50.178;8.370;2023-03-04T06:47:03;98812.88;;;1.98;94.27
18858;BME280;9558;50.178;8.370;2023-03-04T06:49:30;98817.06;;;1.99;94.48
18858;BME280;9558;50.178;8.370;2023-03-04T06:51:56;98814.19;;;2.03;93.85
18858;BME280;9558;50.178;8.370;2023-03-04T06:54:23;98822.44;;;2.07;93.64
18858;BME280;9558;50.178;8.370;2023-03-04T06:56:50;98819.91;;;2.07;93.57
18858;BME280;9558;50.178;8.370;2023-03-04T06:59:16;98819.72;;;2.10;94.09
18858;BME280;9558;50.178;8.370;2023-03-04T07:01:44;98818.56;;;2.14;94.07
18858;BME280;9558;50.178;8.370;2023-03-04T07:04:12;98819.28;;;2.16;93.53
18858;BME280;9558;50.178;8.370;2023-03-04T07:06:38;98831.63;;;2.22;93.74
18858;BME280;9558;50.178;8.370;2023-03-04T07:09:05;98834.16;;;2.22;93.80
18858;BME280;9558;50.178;8.370;2023-03-04T07:11:31;98828.63;;;2.29;93.43
18858;BME280;9558;50.178;8.370;2023-03-04T07:13:58;98838.78;;;2.30;93.31
18858;BME280;9558;50.178;8.370;2023-03-04T07:16:25;98840.28;;;2.33;93.04
18858;BME280;9558;50.178;8.370;2023-03-04T07:18:52;98839.97;;;2.37;93.53
18858;BME280;9558;50.178;8.370;2023-03-04T07:21:19;98843.97;;;2.41;93.26
18858;BME280;9558;50.178;8.370;2023-03-04T07:23:46;98836.19;;;2.43;93.22
18858;BME280;9558;50.178;8.370;2023-03-04T07:26:13;98836.06;;;2.45;93.10
18858;BME280;9558;50.178;8.370;2023-03-04T07:28:39;98843.19;;;2.52;92.91
18858;BME280;9558;50.178;8.370;2023-03-04T07:31:08;98848.59;;;2.61;92.68
18858;BME280;9558;50.178;8.370;2023-03-04T07:33:35;98847.47;;;2.65;92.19
18858;BME280;9558;50.178;8.370;2023-03-04T07:36:03;98849.06;;;2.66;92.19
18858;BME280;9558;50.178;8.370;2023-03-04T07:38:30;98850.25;;;2.73;92.62
18858;BME280;9558;50.178;8.370;2023-03-04T07:40:57;98857.75;;;2.76;92.17
18858;BME280;9558;50.178;8.370;2023-03-04T07:43:24;98856.69;;;2.79;91.93
18858;BME280;9558;50.178;8.370;2023-03-04T07:45:51;98850.75;;;2.78;91.38
18858;BME280;9558;50.178;8.370;2023-03-04T07:48:17;98853.81;;;2.83;91.91
18858;BME280;9558;50.178;8.370;2023-03-04T07:50:44;98853.38;;;2.89;92.12
18858;BME280;9558;50.178;8.370;2023-03-04T07:53:11;98851.31;;;2.94;91.43
18858;BME280;9558;50.178;8.370;2023-03-04T07:55:38;98850.06;;;3.00;91.06
18858;BME280;9558;50.178;8.370;2023-03-04T07:58:05;98861.09;;;3.01;90.75
18858;BME280;9558;50.178;8.370;2023-03-04T08:00:31;98855.53;;;3.07;90.79
18858;BME280;9558;50.178;8.370;2023-03-04T08:02:58;98862.28;;;3.08;91.36
18858;BME280;9558;50.178;8.370;2023-03-04T08:05:24;98856.94;;;3.11;90.60
18858;BME280;9558;50.178;8.370;2023-03-04T08:07:52;98854.41;;;3.11;90.16
18858;BME280;9558;50.178;8.370;2023-03-04T08:10:23;98859.78;;;3.19;90.61
18858;BME280;9558;50.178;8.370;2023-03-04T08:12:49;98857.09;;;3.21;90.78
18858;BME280;9558;50.178;8.370;2023-03-04T08:15:16;98863.63;;;3.25;90.29
18858;BME280;9558;50.178;8.370;2023-03-04T08:17:42;98859.22;;;3.27;89.97
18858;BME280;9558;50.178;8.370;2023-03-04T08:20:10;98866.09;;;3.26;89.26
18858;BME280;9558;50.178;8.370;2023-03-04T08:22:37;98864.22;;;3.28;89.54
18858;BME280;9558;50.178;8.370;2023-03-04T08:25:04;98863.31;;;3.29;89.67
18858;BME280;9558;50.178;8.370;2023-03-04T08:27:32;98870.75;;;3.33;89.46
18858;BME280;9558;50.178;8.370;2023-03-04T08:29:58;98865.75;;;3.31;88.63
18858;BME280;9558;50.178;8.370;2023-03-04T08:32:25;98873.78;;;3.38;89.13
18858;BME280;9558;50.178;8.370;2023-03-04T08:34:51;98871.94;;;3.40;89.18
18858;BME280;9558;50.178;8.370;2023-03-04T08:37:20;98880.56;;;3.39;88.77
18858;BME280;9558;50.178;8.370;2023-03-04T08:39:47;98879.72;;;3.38;88.48
18858;BME280;9558;50.178;8.370;2023-03-04T08:42:13;98882.16;;;3.40;88.83
18858;BME280;9558;50.178;8.370;2023-03-04T08:44:41;98878.69;;;3.41;88.46
18858;BME280;9558;50.178;8.370;2023-03-04T08:47:08;98877.78;;;3.42;88.31
18858;BME280;9558;50.178;8.370;2023-03-04T08:49:34;98877.31;;;3.48;88.63
18858;BME280;9558;50.178;8.370;2023-03-04T08:52:01;98880.59;;;3.50;88.34
18858;BME280;9558;50.178;8.370;2023-03-04T08:54:27;98880.25;;;3.55;88.70
18858;BME280;9558;50.178;8.370;2023-03-04T08:56:54;98882.47;;;3.59;88.78
18858;BME280;9558;50.178;8.370;2023-03-04T08:59:20;98882.72;;;3.68;88.42
18858;BME280;9558;50.178;8.370;2023-03-04T09:01:48;98877.38;;;3.71;88.07
18858;BME280;9558;50.178;8.370;2023-03-04T09:04:15;98879.69;;;3.74;87.99
18858;BME280;9558;50.178;8.370;2023-03-04T09:06:41;98879.47;;;3.77;88.12
18858;BME280;9558;50.178;8.370;2023-03-04T09:09:08;98880.41;;;3.76;87.63
18858;BME280;9558;50.178;8.370;2023-03-04T09:11:35;98879.03;;;3.83;87.28
18858;BME280;9558;50.178;8.370;2023-03-04T09:14:02;98882.28;;;3.85;87.40
18858;BME280;9558;50.178;8.370;2023-03-04T09:16:28;98876.13;;;3.88;87.05
18858;BME280;9558;50.178;8.370;2023-03-04T09:18:56;98875.28;;;3.87;86.83
18858;BME280;9558;50.178;8.370;2023-03-04T09:21:23;98883.44;;;3.92;86.91
18858;BME280;9558;50.178;8.370;2023-03-04T09:23:49;98881.59;;;3.94;86.80
18858;BME280;9558;50.178;8.370;2023-03-04T09:26:20;98874.38;;;4.00;86.52
18858;BME280;9558;50.178;8.370;2023-03-04T09:28:49;98879.84;;;4.06;86.48
18858;BME280;9558;50.178;8.370;2023-03-04T09:31:15;98875.53;;;4.07;85.78
18858;BME280;9558;50.178;8.370;2023-03-04T09:33:42;98880.41;;;4.10;85.83
18858;BME280;9558;50.178;8.370;2023-03-04T09:36:12;98881.81;;;4.14;85.77
18858;BME280;9558;50.178;8.370;2023-03-04T09:38:40;98876.25;;;4.20;85.42
18858;BME280;9558;50.178;8.370;2023-03-04T09:41:08;98877.88;;;4.21;84.57
18858;BME280;9558;50.178;8.370;2023-03-04T09:43:38;98880.19;;;4.24;84.46
18858;BME280;9558;50.178;8.370;2023-03-04T09:46:07;98883.69;;;4.23;84.27
18858;BME280;9558;50.178;8.370;2023-03-04T09:48:39;98888.09;;;4.21;84.52
18858;BME280;9558;50.178;8.370;2023-03-04T09:51:19;98885.44;;;4.23;84.51
18858;BME280;9558;50.178;8.370;2023-03-04T09:53:53;98880.53;;;4.20;84.09
18858;BME280;9558;50.178;8.370;2023-03-04T09:56:24;98885.66;;;4.20;84.57
18858;BME280;9558;50.178;8.370;2023-03-04T09:58:57;98872.41;;;4.26;84.47
18858;BME280;9558;50.178;8.370;2023-03-04T10:01:30;98879.25;;;4.25;84.48
18858;BME280;9558;50.178;8.370;2023-03-04T10:04:02;98873.09;;;4.28;84.61
18858;BME280;9558;50.178;8.370;2023-03-04T10:06:36;98879.50;;;4.33;84.36
18858;BME280;9558;50.178;8.370;2023-03-04T10:09:05;98876.69;;;4.37;84.28
18858;BME280;9558;50.178;8.370;2023-03-04T10:11:40;98869.47;;;4.42;84.60
18858;BME280;9558;50.178;8.370;2023-03-04T10:14:16;98878.56;;;4.46;83.97
18858;BME280;9558;50.178;8.370;2023-03-04T10:16:49;98866.19;;;4.51;84.00
18858;BME280;9558;50.178;8.370;2023-03-04T10:19:25;98863.84;;;4.59;84.25
18858;BME280;9558;50.178;8.370;2023-03-04T10:21:55;98865.13;;;4.65;84.22
18858;BME280;9558;50.178;8.370;2023-03-04T10:24:25;98861.94;;;4.73;83.55
18858;BME280;9558;50.178;8.370;2023-03-04T10:26:54;98868.47;;;4.77;83.65
18858;BME280;9558;50.178;8.370;2023-03-04T10:29:27;98866.38;;;4.82;82.55
18858;BME280;9558;50.178;8.370;2023-03-04T10:31:55;98861.91;;;4.84;82.44
18858;BME280;9558;50.178;8.370;2023-03-04T10:34:22;98860.41;;;4.81;82.05
18858;BME280;9558;50.178;8.370;2023-03-04T10:36:55;98859.22;;;4.85;82.06
18858;BME280;9558;50.178;8.370;2023-03-04T10:39:25;98859.56;;;4.92;82.32
18858;BME280;9558;50.178;8.370;2023-03-04T10:41:56;98853.50;;;4.93;82.01
18858;BME280;9558;50.178;8.370;2023-03-04T10:44:23;98855.56;;;4.99;81.68
18858;BME280;9558;50.178;8.370;2023-03-04T10:46:52;98847.63;;;5.02;81.25
18858;BME280;9558;50.178;8.370;2023-03-04T10:49:19;98847.63;;;5.02;80.24
18858;BME280;9558;50.178;8.370;2023-03-04T10:51:47;98845.78;;;5.05;80.65
18858;BME280;9558;50.178;8.370;2023-03-04T10:54:22;98836.06;;;5.08;79.90
18858;BME280;9558;50.178;8.370;2023-03-04T10:56:56;98843.09;;;5.06;79.92
18858;BME280;9558;50.178;8.370;2023-03-04T10:59:32;98840.53;;;5.06;79.54
18858;BME280;9558;50.178;8.370;2023-03-04T11:02:01;98843.22;;;5.05;79.14
18858;BME280;9558;50.178;8.370;2023-03-04T11:04:32;98840.66;;;5.05;79.33
18858;BME280;9558;50.178;8.370;2023-03-04T11:06:59;98839.56;;;5.07;79.37
18858;BME280;9558;50.178;8.370;2023-03-04T11:09:29;98839.34;;;5.10;79.84
18858;BME280;9558;50.178;8.370;2023-03-04T11:11:59;98842.72;;;5.11;78.62
18858;BME280;9558;50.178;8.370;2023-03-04T11:14:27;98830.25;;;5.06;78.02
18858;BME280;9558;50.178;8.370;2023-03-04T11:16:58;98823.38;;;5.07;78.82
18858;BME280;9558;50.178;8.370;2023-03-04T11:19:28;98826.84;;;5.06;79.10
18858;BME280;9558;50.178;8.370;2023-03-04T11:21:56;98826.63;;;5.09;79.30
18858;BME280;9558;50.178;8.370;2023-03-04T11:24:24;98825.81;;;5.08;78.80
18858;BME280;9558;50.178;8.370;2023-03-04T11:26:56;98833.13;;;5.13;78.93
18858;BME280;9558;50.178;8.370;2023-03-04T11:29:27;98823.75;;;5.23;79.48
18858;BME280;9558;50.178;8.370;2023-03-04T11:32:00;98825.81;;;5.29;78.85
18858;BME280;9558;50.178;8.370;2023-03-04T11:34:35;98819.38;;;5.35;78.80
18858;BME280;9558;50.178;8.370;2023-03-04T11:37:07;98822.50;;;5.39;78.38
18858;BME280;9558;50.178;8.370;2023-03-04T11:39:37;98818.75;;;5.43;78.46
18858;BME280;9558;50.178;8.370;2023-03-04T11:42:15;98823.38;;;5.49;78.31
18858;BME280;9558;50.178;8.370;2023-03-04T11:44:45;98822.63;;;5.58;78.36
18858;BME280;9558;50.178;8.370;2023-03-04T11:47:21;98817.47;;;5.58;76.67
18858;BME280;9558;50.178;8.370;2023-03-04T11:50:13;98822.09;;;5.64;76.67
18858;BME280;9558;50.178;8.370;2023-03-04T11:53:10;98814.66;;;5.61;76.89
18858;BME280;9558;50.178;8.370;2023-03-04T11:55:43;98813.97;;;5.59;76.09
18858;BME280;9558;50.178;8.370;2023-03-04T11:58:27;98806.81;;;5.63;76.44
18858;BME280;9558;50.178;8.370;2023-03-04T12:01:06;98803.19;;;5.65;77.10
18858;BME280;9558;50.178;8.370;2023-03-04T12:03:55;98798.63;;;5.69;77.02
18858;BME280;9558;50.178;8.370;2023-03-04T12:06:30;98805.69;;;5.77;76.71
18858;BME280;9558;50.178;8.370;2023-03-04T12:09:10;98799.59;;;5.78;76.05
18858;BME280;9558;50.178;8.370;2023-03-04T12:11:45;98799.34;;;5.81;76.29
18858;BME280;9558;50.178;8.370;2023-03-04T12:14:25;98786.25;;;5.84;75.66
18858;BME280;9558;50.178;8.370;2023-03-04T12:17:08;98790.56;;;5.83;75.42
18858;BME280;9558;50.178;8.370;2023-03-04T12:19:55;98786.25;;;5.84;74.71
18858;BME280;9558;50.178;8.370;2023-03-04T12:22:30;98772.47;;;5.85;74.34
18858;BME280;9558;50.178;8.370;2023-03-04T12:25:07;98771.94;;;5.91;74.99
18858;BME280;9558;50.178;8.370;2023-03-04T12:27:42;98765.78;;;6.03;74.49
18858;BME280;9558;50.178;8.370;2023-03-04T12:30:26;98767.06;;;6.19;74.89
18858;BME280;9558;50.178;8.370;2023-03-04T12:33:02;98755.41;;;6.34;74.81
18858;BME280;9558;50.178;8.370;2023-03-04T12:35:37;98755.56;;;6.43;72.36
18858;BME280;9558;50.178;8.370;2023-03-04T12:38:28;98760.75;;;6.62;74.03
18858;BME280;9558;50.178;8.370;2023-03-04T12:41:02;98764.53;;;6.68;70.48
18858;BME280;9558;50.178;8.370;2023-03-04T12:43:40;98758.84;;;6.74;71.28
18858;BME280;9558;50.178;8.370;2023-03-04T12:46:26;98760.06;;;6.80;71.99
18858;BME280;9558;50.178;8.370;2023-03-04T12:49:29;98758.41;;;6.88;72.25
18858;BME280;9558;50.178;8.370;2023-03-04T12:52:07;98756.41;;;6.92;71.02
18858;BME280;9558;50.178;8.370;2023-03-04T12:54:40;98749.75;;;6.99;70.02
18858;BME280;9558;50.178;8.370;2023-03-04T12:57:12;98753.53;;;6.95;69.24
18858;BME280;9558;50.178;8.370;2023-03-04T12:59:43;98753.69;;;6.94;71.18
18858;BME280;9558;50.178;8.370;2023-03-04T13:02:28;98750.41;;;6.91;70.71
18858;BME280;9558;50.178;8.370;2023-03-04T13:05:07;98745.81;;;6.95;71.18
18858;BME280;9558;50.178;8.370;2023-03-04T13:07:51;98743.13;;;6.97;71.52
18858;BME280;9558;50.178;8.370;2023-03-04T13:10:18;98743.25;;;6.95;70.18
18858;BME280;9558;50.178;8.370;2023-03-04T13:12:47;98744.19;;;6.94;70.39
18858;BME280;9558;50.178;8.370;2023-03-04T13:15:27;98733.91;;;6.94;70.63
18858;BME280;9558;50.178;8.370;2023-03-04T13:17:57;98726.47;;;6.91;70.66
18858;BME280;9558;50.178;8.370;2023-03-04T13:20:33;98724.44;;;6.95;71.55
18858;BME280;9558;50.178;8.370;2023-03-04T13:23:01;98725.09;;;6.97;71.59
18858;BME280;9558;50.178;8.370;2023-03-04T13:25:32;98724.97;;;6.98;71.76
18858;BME280;9558;50.178;8.370;2023-03-04T13:28:14;98716.88;;;6.93;70.26
18858;BME280;9558;50.178;8.370;2023-03-04T13:31:10;98715.66;;;6.78;69.17